Time;durP1;ratioP1;P1;durP2;ratioP2;P2;SDS_P1;SDS_P2;PMS_P1;PMS_P2;Temp;Humidity;BMP_temperature;BMP_pressure;BME280_temperature;BME280_humidity;BME280_pressure;Samples;Min_cycle;Max_cycle;Signal;HPM_P1;HPM_P2
2023/03/15 00:00:54;;;;;;;0.00;0.00;;;2.60;99.90;;;;;;5062707;28;20545;-70
2023/03/15 00:03:20;;;;;;;0.00;0.00;;;2.60;99.90;;;;;;5051950;28;20170;-69
2023/03/15 00:05:48;;;;;;;0.00;0.00;;;2.70;99.90;;;;;;5051944;28;20232;-69
2023/03/15 00:08:14;;;;;;;0.00;0.00;;;2.80;99.90;;;;;;5051911;28;20578;-70
2023/03/15 00:10:41;;;;;;;0.00;0.00;;;2.80;99.90;;;;;;5051864;28;20185;-70
2023/03/15 00:13:07;;;;;;;0.00;0.00;;;2.70;99.90;;;;;;5051843;28;20239;-69
2023/03/15 00:15:32;;;;;;;0.00;0.00;;;2.70;99.90;;;;;;5051033;28;20583;-70
2023/03/15 00:17:58;;;;;;;0.00;0.00;;;2.70;99.90;;;;;;5059428;28;20220;-70
2023/03/15 00:20:23;;;;;;;0.00;0.00;;;2.70;99.90;;;;;;5060480;28;20205;-70
2023/03/15 00:22:49;;;;;;;0.00;0.00;;;2.80;99.90;;;;;;5061221;28;20273;-70
2023/03/15 00:25:15;;;;;;;0.00;0.00;;;2.70;99.90;;;;;;5069233;28;20207;-69
2023/03/15 00:27:40;;;;;;;0.00;0.00;;;2.70;99.90;;;;;;5057553;28;20184;-70
2023/03/15 00:30:06;;;;;;;0.00;0.00;;;2.70;99.90;;;;;;5053220;28;20564;-71
2023/03/15 00:32:32;;;;;;;0.00;0.00;;;2.60;99.90;;;;;;5058702;28;20548;-72
2023/03/15 00:34:57;;;;;;;0.20;0.20;;;2.60;99.90;;;;;;5055764;28;20180;-71
2023/03/15 00:37:24;;;;;;;0.00;0.00;;;2.50;99.90;;;;;;5066583;28;20210;-70
2023/03/15 00:39:50;;;;;;;0.00;0.00;;;2.40;99.90;;;;;;5067334;28;20283;-71
2023/03/15 00:42:16;;;;;;;0.20;0.20;;;2.40;99.90;;;;;;5060125;28;20173;-70
2023/03/15 00:44:43;;;;;;;0.00;0.00;;;2.40;99.90;;;;;;5055331;28;21028;-70
2023/03/15 00:47:10;;;;;;;0.10;0.10;;;2.30;99.90;;;;;;5051142;28;20185;-72
2023/03/15 00:49:36;;;;;;;0.00;0.00;;;2.30;99.90;;;;;;5050893;28;20462;-71
2023/03/15 00:52:01;;;;;;;0.03;0.03;;;2.20;99.90;;;;;;5051148;28;20169;-71
2023/03/15 00:54:27;;;;;;;0.00;0.00;;;2.20;99.90;;;;;;5050976;28;20212;-71
2023/03/15 00:56:53;;;;;;;0.00;0.00;;;2.20;99.90;;;;;;5050629;28;20247;-71
2023/03/15 00:59:18;;;;;;;0.00;0.00;;;2.20;99.90;;;;;;5052103;28;20244;-71
2023/03/15 01:01:44;;;;;;;0.00;0.00;;;2.20;99.90;;;;;;5055051;28;20178;-71
2023/03/15 01:04:12;;;;;;;0.00;0.00;;;2.30;99.90;;;;;;5050840;28;20671;-71
2023/03/15 01:06:41;;;;;;;0.00;0.00;;;2.30;99.90;;;;;;5035440;28;20225;-70
2023/03/15 01:09:07;;;;;;;0.00;0.00;;;2.30;99.90;;;;;;5051115;28;20192;-71
2023/03/15 01:11:33;;;;;;;0.00;0.00;;;2.30;99.90;;;;;;5053017;28;20276;-71
2023/03/15 01:13:59;;;;;;;0.00;0.00;;;2.30;99.90;;;;;;5059517;28;20280;-71
2023/03/15 01:16:26;;;;;;;0.00;0.00;;;2.30;99.90;;;;;;5060807;28;20300;-72
2023/03/15 01:18:52;;;;;;;0.00;0.00;;;2.20;99.90;;;;;;5052269;28;20217;-72
2023/03/15 01:21:19;;;;;;;0.00;0.00;;;2.20;99.90;;;;;;5051160;28;20177;-70
2023/03/15 01:23:45;;;;;;;0.00;0.00;;;2.20;99.90;;;;;;5061080;28;20204;-71
2023/03/15 01:26:13;;;;;;;0.00;0.00;;;2.20;99.90;;;;;;5061147;28;20205;-71
2023/03/15 01:28:39;;;;;;;0.00;0.00;;;2.20;99.90;;;;;;5051139;28;20212;-71
2023/03/15 01:31:05;;;;;;;0.00;0.00;;;2.20;99.90;;;;;;5054361;28;20205;-71
2023/03/15 01:33:30;;;;;;;0.00;0.00;;;2.20;99.90;;;;;;5061990;28;20174;-71
2023/03/15 01:36:03;;;;;;;0.00;0.00;;;2.10;99.90;;;;;;5057016;28;20299;-71
2023/03/15 01:38:29;;;;;;;0.00;0.00;;;2.10;99.90;;;;;;5070420;28;20197;-71
2023/03/15 01:40:55;;;;;;;0.00;0.00;;;2.10;99.90;;;;;;5056136;28;20192;-71
2023/03/15 01:43:23;;;;;;;0.00;0.00;;;2.10;99.90;;;;;;5060738;28;20202;-71
2023/03/15 01:46:01;;;;;;;0.00;0.00;;;2.10;99.90;;;;;;5069406;28;20185;-71
2023/03/15 01:48:49;;;;;;;0.00;0.00;;;2.10;99.90;;;;;;5054781;28;20766;-71
2023/03/15 01:51:21;;;;;;;0.45;0.35;;;2.10;99.90;;;;;;5053481;28;20260;-69
2023/03/15 01:53:55;;;;;;;0.00;0.00;;;2.10;99.90;;;;;;5064378;28;20176;-70
2023/03/15 01:56:22;;;;;;;0.10;0.10;;;2.10;99.90;;;;;;5065286;28;20177;-71
2023/03/15 01:58:50;;;;;;;0.00;0.00;;;2.10;99.90;;;;;;5054802;28;20289;-70
2023/03/15 02:01:16;;;;;;;0.00;0.00;;;2.10;99.90;;;;;;5073348;28;20238;-69
2023/03/15 02:03:45;;;;;;;0.00;0.00;;;2.10;99.90;;;;;;5065306;28;20177;-70
2023/03/15 02:06:16;;;;;;;0.00;0.00;;;2.10;99.90;;;;;;5054343;28;20539;-70
2023/03/15 02:08:47;;;;;;;0.00;0.00;;;2.10;99.90;;;;;;5054644;28;20725;-70
2023/03/15 02:11:16;;;;;;;0.00;0.00;;;2.10;99.90;;;;;;5072732;28;20184;-70
2023/03/15 02:13:42;;;;;;;0.00;0.00;;;2.10;99.90;;;;;;5065509;28;20277;-70
2023/03/15 02:16:08;;;;;;;0.00;0.00;;;2.10;99.90;;;;;;5061083;28;20181;-70
2023/03/15 02:18:36;;;;;;;0.00;0.00;;;2.10;99.90;;;;;;5063704;28;20212;-70
2023/03/15 02:21:39;;;;;;;0.00;0.00;;;2.00;99.90;;;;;;5070927;28;20185;-70
2023/03/15 02:24:25;;;;;;;0.00;0.00;;;2.00;99.90;;;;;;5060972;28;20224;-70
2023/03/15 02:26:55;;;;;;;0.00;0.00;;;2.00;99.90;;;;;;5056140;28;20185;-70
2023/03/15 02:29:23;;;;;;;0.00;0.00;;;2.00;99.90;;;;;;5053868;28;20668;-69
2023/03/15 02:31:48;;;;;;;0.00;0.00;;;1.90;99.90;;;;;;5053592;28;20284;-71
2023/03/15 02:34:14;;;;;;;0.00;0.00;;;1.90;99.90;;;;;;5054257;28;20177;-71
2023/03/15 02:36:40;;;;;;;0.00;0.00;;;1.80;99.90;;;;;;5063919;28;20187;-70
2023/03/15 02:39:20;;;;;;;0.00;0.00;;;1.80;99.90;;;;;;5055072;28;20209;-70
2023/03/15 02:42:06;;;;;;;0.00;0.00;;;1.70;99.90;;;;;;5057290;28;20181;-70
2023/03/15 02:44:34;;;;;;;0.00;0.00;;;1.70;99.90;;;;;;5060920;28;20178;-71
2023/03/15 02:47:19;;;;;;;0.00;0.00;;;1.70;99.90;;;;;;5064254;28;20212;-70
2023/03/15 02:49:49;;;;;;;0.00;0.00;;;1.60;99.90;;;;;;5070129;28;20180;-71
2023/03/15 02:52:15;;;;;;;0.00;0.00;;;1.60;99.90;;;;;;5053681;28;20520;-71
2023/03/15 02:54:42;;;;;;;0.00;0.00;;;1.60;99.90;;;;;;5063468;28;20666;-70
2023/03/15 02:57:09;;;;;;;0.00;0.00;;;1.50;99.90;;;;;;5072929;28;20177;-71
2023/03/15 02:59:35;;;;;;;0.00;0.00;;;1.50;99.90;;;;;;5051119;28;20225;-70
2023/03/15 03:02:01;;;;;;;0.00;0.00;;;1.50;99.90;;;;;;5062742;28;20179;-70
2023/03/15 03:04:26;;;;;;;0.00;0.00;;;1.50;99.90;;;;;;5065399;28;20185;-70
2023/03/15 03:06:52;;;;;;;0.00;0.00;;;1.50;99.90;;;;;;5064450;28;20207;-70
2023/03/15 03:09:17;;;;;;;0.00;0.00;;;1.50;99.90;;;;;;5061788;28;20550;-70
2023/03/15 03:11:43;;;;;;;0.00;0.00;;;1.50;99.90;;;;;;5053296;28;20236;-70
2023/03/15 03:14:09;;;;;;;0.00;0.00;;;1.50;99.90;;;;;;5058415;28;20208;-70
2023/03/15 03:16:34;;;;;;;0.00;0.00;;;1.50;99.90;;;;;;5064369;28;20252;-70
2023/03/15 03:19:00;;;;;;;0.00;0.00;;;1.40;99.90;;;;;;5053220;28;20205;-71
2023/03/15 03:21:25;;;;;;;0.00;0.00;;;1.40;99.90;;;;;;5070852;28;20188;-70
2023/03/15 03:23:53;;;;;;;0.00;0.00;;;1.40;99.90;;;;;;5064704;28;20186;-70
2023/03/15 03:26:19;;;;;;;0.00;0.00;;;1.40;99.90;;;;;;5059221;28;20173;-70
2023/03/15 03:28:46;;;;;;;0.00;0.00;;;1.40;99.90;;;;;;5072802;28;20343;-71
2023/03/15 03:31:25;;;;;;;0.00;0.00;;;1.40;99.90;;;;;;5056390;28;20184;-71
2023/03/15 03:33:51;;;;;;;0.00;0.00;;;1.40;99.90;;;;;;5057837;28;20187;-71
2023/03/15 03:36:17;;;;;;;0.00;0.00;;;1.40;99.90;;;;;;5058596;28;20180;-70
2023/03/15 03:38:44;;;;;;;0.00;0.00;;;1.40;99.90;;;;;;5063088;28;20276;-71
2023/03/15 03:41:11;;;;;;;0.00;0.00;;;1.40;99.90;;;;;;5066911;28;20275;-71
2023/03/15 03:43:37;;;;;;;0.00;0.00;;;1.40;99.90;;;;;;5059219;28;20176;-70
2023/03/15 03:46:04;;;;;;;0.00;0.00;;;1.40;99.90;;;;;;5061763;28;20185;-70
2023/03/15 03:48:30;;;;;;;0.00;0.00;;;1.40;99.90;;;;;;5054099;28;20213;-70
2023/03/15 03:50:56;;;;;;;0.00;0.00;;;1.40;99.90;;;;;;5063840;28;20181;-70
2023/03/15 03:53:21;;;;;;;0.00;0.00;;;1.30;99.90;;;;;;5064885;28;20211;-70
2023/03/15 03:55:47;;;;;;;0.00;0.00;;;1.30;99.90;;;;;;5070433;28;20571;-70
2023/03/15 03:58:12;;;;;;;0.00;0.00;;;1.30;99.90;;;;;;5057061;28;20188;-70
2023/03/15 04:00:38;;;;;;;0.00;0.00;;;1.20;99.90;;;;;;5062859;28;20196;-70
2023/03/15 04:03:04;;;;;;;0.00;0.00;;;1.20;99.90;;;;;;5068773;28;20280;-70
2023/03/15 04:05:29;;;;;;;0.00;0.00;;;1.20;99.90;;;;;;5051769;28;20612;-70
2023/03/15 04:07:55;;;;;;;0.00;0.00;;;1.20;99.90;;;;;;5070678;28;20260;-70
2023/03/15 04:10:25;;;;;;;0.00;0.00;;;1.20;99.90;;;;;;5063356;28;20165;-70
2023/03/15 04:12:53;;;;;;;0.00;0.00;;;1.20;99.90;;;;;;5052387;28;20217;-70
2023/03/15 04:15:21;;;;;;;0.00;0.00;;;1.20;99.90;;;;;;5070903;28;20230;-70
2023/03/15 04:17:47;;;;;;;0.00;0.00;;;1.10;99.90;;;;;;5054195;28;20259;-71
2023/03/15 04:20:14;;;;;;;0.00;0.00;;;1.10;99.90;;;;;;5058733;28;20209;-71
2023/03/15 04:22:39;;;;;;;0.10;0.10;;;1.20;99.90;;;;;;5070215;28;20177;-70
2023/03/15 04:25:06;;;;;;;0.00;0.00;;;1.10;99.90;;;;;;5059374;28;20193;-70
2023/03/15 04:27:31;;;;;;;0.00;0.00;;;1.10;99.90;;;;;;5050306;28;20177;-70
2023/03/15 04:29:57;;;;;;;0.00;0.00;;;1.10;99.90;;;;;;5051648;28;20170;-71
2023/03/15 04:32:23;;;;;;;0.00;0.00;;;1.00;99.90;;;;;;5051197;28;20183;-71
2023/03/15 04:34:50;;;;;;;0.00;0.00;;;1.10;99.90;;;;;;5051855;28;20184;-71
2023/03/15 04:37:17;;;;;;;0.00;0.00;;;1.10;99.90;;;;;;5051342;28;20185;-67
2023/03/15 04:39:42;;;;;;;0.10;0.10;;;1.10;99.90;;;;;;5065402;28;20293;-67
2023/03/15 04:42:08;;;;;;;0.00;0.00;;;1.10;99.90;;;;;;5068163;28;20246;-72
2023/03/15 04:44:34;;;;;;;0.00;0.00;;;1.10;99.90;;;;;;5063836;28;20267;-72
2023/03/15 04:46:59;;;;;;;0.00;0.00;;;1.10;99.90;;;;;;5061170;28;20178;-71
2023/03/15 04:49:25;;;;;;;0.00;0.00;;;1.10;99.90;;;;;;5051440;28;20181;-67
2023/03/15 04:51:50;;;;;;;0.20;0.20;;;1.10;99.90;;;;;;5052099;28;20644;-66
2023/03/15 04:54:16;;;;;;;0.00;0.00;;;1.10;99.90;;;;;;5051669;28;20185;-64
2023/03/15 04:56:41;;;;;;;0.00;0.00;;;1.10;99.90;;;;;;5057993;28;20815;-67
2023/03/15 04:59:07;;;;;;;0.00;0.00;;;1.10;99.90;;;;;;5064059;28;20208;-66
2023/03/15 05:01:33;;;;;;;0.00;0.00;;;1.10;99.90;;;;;;5057572;28;20182;-67
2023/03/15 05:03:58;;;;;;;0.00;0.00;;;1.10;99.90;;;;;;5055014;28;20268;-67
2023/03/15 05:06:24;;;;;;;0.00;0.00;;;1.00;99.90;;;;;;5057957;28;20181;-67
2023/03/15 05:08:50;;;;;;;0.00;0.00;;;1.00;99.90;;;;;;5051060;28;20177;-67
2023/03/15 05:11:16;;;;;;;0.00;0.00;;;1.00;99.90;;;;;;5051282;28;20207;-67
2023/03/15 05:13:41;;;;;;;0.00;0.00;;;0.90;99.90;;;;;;5051129;28;20182;-65
2023/03/15 05:16:07;;;;;;;0.00;0.00;;;0.90;99.90;;;;;;5054111;28;20212;-66
2023/03/15 05:18:32;;;;;;;0.00;0.00;;;0.90;99.90;;;;;;5055440;28;20228;-66
2023/03/15 05:20:58;;;;;;;0.00;0.00;;;0.90;99.90;;;;;;5055678;28;20632;-66
2023/03/15 05:23:24;;;;;;;0.00;0.00;;;0.90;99.90;;;;;;5055586;28;20184;-65
2023/03/15 05:25:52;;;;;;;0.00;0.00;;;0.80;99.90;;;;;;5055213;28;20220;-66
2023/03/15 05:28:22;;;;;;;0.00;0.00;;;0.80;99.90;;;;;;5055117;28;20181;-66
2023/03/15 05:30:48;;;;;;;0.00;0.00;;;0.80;99.90;;;;;;5055472;28;20695;-66
2023/03/15 05:33:15;;;;;;;0.10;0.10;;;0.80;99.90;;;;;;5055283;28;20213;-66
2023/03/15 05:35:42;;;;;;;0.00;0.00;;;0.80;99.90;;;;;;5053469;28;20644;-66
2023/03/15 05:38:08;;;;;;;0.00;0.00;;;0.80;99.90;;;;;;5053685;28;20538;-66
2023/03/15 05:40:34;;;;;;;0.00;0.00;;;0.80;99.90;;;;;;5054843;28;20213;-66
2023/03/15 05:42:59;;;;;;;0.00;0.00;;;0.80;99.90;;;;;;5054793;28;20209;-65
2023/03/15 05:45:25;;;;;;;0.00;0.00;;;0.90;99.90;;;;;;5053683;28;20235;-66
2023/03/15 05:47:50;;;;;;;0.00;0.00;;;0.90;99.90;;;;;;5055010;28;20211;-65
2023/03/15 05:50:16;;;;;;;0.30;0.30;;;0.90;99.90;;;;;;5054562;28;20182;-65
2023/03/15 05:52:42;;;;;;;0.00;0.00;;;0.90;99.90;;;;;;5054566;28;20264;-66
2023/03/15 05:55:08;;;;;;;0.00;0.00;;;0.90;99.90;;;;;;5054571;28;20182;-65
2023/03/15 05:57:33;;;;;;;0.00;0.00;;;1.00;99.90;;;;;;5054549;28;20223;-66
2023/03/15 05:59:59;;;;;;;0.00;0.00;;;1.00;99.90;;;;;;5054333;28;20213;-66
2023/03/15 06:02:24;;;;;;;0.00;0.00;;;1.10;99.90;;;;;;5054448;28;20173;-66
2023/03/15 06:04:50;;;;;;;0.00;0.00;;;1.10;99.90;;;;;;5054217;28;20212;-66
2023/03/15 06:07:15;;;;;;;0.00;0.00;;;1.10;99.90;;;;;;5054168;28;20178;-66
2023/03/15 06:09:41;;;;;;;0.00;0.00;;;1.20;99.90;;;;;;5054133;28;20549;-66
2023/03/15 06:12:06;;;;;;;0.00;0.00;;;1.20;99.90;;;;;;5054295;28;20181;-66
2023/03/15 06:14:32;;;;;;;0.00;0.00;;;1.20;99.90;;;;;;5054089;28;20193;-66
2023/03/15 06:16:57;;;;;;;0.20;0.13;;;1.20;99.90;;;;;;5053979;28;20567;-66
2023/03/15 06:19:23;;;;;;;0.00;0.00;;;1.20;99.90;;;;;;5053825;28;20738;-66
2023/03/15 06:21:49;;;;;;;0.00;0.00;;;1.30;99.90;;;;;;5053988;28;20177;-66
2023/03/15 06:24:15;;;;;;;0.10;0.10;;;1.30;99.90;;;;;;5054095;28;20170;-66
2023/03/15 06:26:40;;;;;;;0.10;0.10;;;1.30;99.90;;;;;;5053266;28;20169;-66
2023/03/15 06:29:06;;;;;;;0.00;0.00;;;1.30;99.90;;;;;;5053789;28;20417;-67
2023/03/15 06:31:31;;;;;;;0.00;0.00;;;1.30;99.90;;;;;;5053886;28;20228;-66
2023/03/15 06:33:57;;;;;;;0.00;0.00;;;1.40;99.90;;;;;;5053881;28;20184;-66
2023/03/15 06:36:23;;;;;;;0.00;0.00;;;1.40;99.90;;;;;;5053570;28;20276;-66
2023/03/15 06:38:49;;;;;;;0.00;0.00;;;1.50;99.90;;;;;;5053798;28;20564;-66
2023/03/15 06:41:15;;;;;;;0.00;0.00;;;1.60;99.90;;;;;;5053875;28;20264;-67
2023/03/15 06:43:41;;;;;;;0.00;0.00;;;1.70;99.90;;;;;;5053560;28;20641;-66
2023/03/15 06:46:06;;;;;;;0.00;0.00;;;1.90;99.90;;;;;;5053644;28;20222;-66
2023/03/15 06:48:32;;;;;;;0.00;0.00;;;2.20;99.90;;;;;;5053636;28;20738;-66
2023/03/15 06:50:58;;;;;;;0.00;0.00;;;2.50;99.90;;;;;;5053497;28;20188;-66
2023/03/15 06:53:23;;;;;;;0.00;0.00;;;2.80;99.90;;;;;;5053513;28;20185;-66
2023/03/15 06:55:49;;;;;;;0.00;0.00;;;3.00;99.90;;;;;;5053495;28;20633;-66
2023/03/15 06:58:15;;;;;;;0.47;0.45;;;3.20;99.90;;;;;;5053505;28;20640;-66
2023/03/15 07:00:41;;;;;;;0.00;0.00;;;3.20;99.90;;;;;;5053081;28;20213;-66
2023/03/15 07:03:06;;;;;;;0.00;0.00;;;3.20;99.90;;;;;;5053371;28;20251;-66
2023/03/15 07:05:32;;;;;;;0.00;0.00;;;3.10;99.90;;;;;;5053225;28;20181;-66
2023/03/15 07:07:57;;;;;;;0.00;0.00;;;3.00;99.90;;;;;;5053247;28;20178;-66
2023/03/15 07:10:23;;;;;;;0.00;0.00;;;3.00;99.90;;;;;;5052969;28;20196;-66
2023/03/15 07:12:48;;;;;;;0.00;0.00;;;3.40;99.90;;;;;;5053173;28;20239;-66
2023/03/15 07:15:14;;;;;;;0.00;0.00;;;3.60;99.90;;;;;;5051907;28;20162;-65
2023/03/15 07:17:40;;;;;;;0.00;0.00;;;3.70;99.90;;;;;;5052768;28;20222;-65
2023/03/15 07:20:06;;;;;;;0.00;0.00;;;4.10;99.90;;;;;;5052914;28;20225;-66
2023/03/15 07:22:32;;;;;;;0.00;0.00;;;4.40;99.90;;;;;;5053105;28;20177;-67
2023/03/15 07:24:58;;;;;;;0.00;0.00;;;4.70;99.90;;;;;;5053087;28;20182;-66
2023/03/15 07:27:24;;;;;;;0.00;0.00;;;5.00;99.90;;;;;;5052869;28;20530;-66
2023/03/15 07:29:49;;;;;;;0.00;0.00;;;5.50;99.90;;;;;;5052981;28;20258;-66
2023/03/15 07:32:15;;;;;;;0.00;0.00;;;5.50;99.90;;;;;;5052953;28;20183;-66
2023/03/15 07:34:41;;;;;;;0.00;0.00;;;5.80;99.90;;;;;;5052759;28;20272;-66
2023/03/15 07:37:07;;;;;;;0.00;0.00;;;6.30;99.90;;;;;;5052522;28;20186;-67
2023/03/15 07:39:32;;;;;;;0.00;0.00;;;6.70;99.90;;;;;;5052249;28;20675;-67
2023/03/15 07:41:59;;;;;;;0.00;0.00;;;7.30;99.90;;;;;;5052937;28;20181;-67
2023/03/15 07:44:25;;;;;;;0.00;0.00;;;7.90;99.90;;;;;;5052836;28;20219;-67
2023/03/15 07:46:51;;;;;;;0.00;0.00;;;8.30;99.90;;;;;;5052937;28;20182;-67
2023/03/15 07:49:16;;;;;;;0.00;0.00;;;8.10;99.90;;;;;;5052785;28;20282;-67
2023/03/15 07:51:42;;;;;;;0.00;0.00;;;8.10;99.90;;;;;;5052568;28;20181;-67
2023/03/15 07:54:08;;;;;;;0.00;0.00;;;7.80;99.70;;;;;;5052785;28;20207;-67
2023/03/15 07:56:34;;;;;;;0.00;0.00;;;7.60;99.80;;;;;;5051261;28;20177;-67
2023/03/15 07:58:59;;;;;;;0.00;0.00;;;7.50;99.90;;;;;;5052535;28;20205;-67
2023/03/15 08:01:25;;;;;;;0.00;0.00;;;7.40;99.80;;;;;;5052883;28;20593;-67
2023/03/15 08:03:50;;;;;;;0.00;0.00;;;7.30;99.90;;;;;;5052592;28;20683;-68
2023/03/15 08:06:16;;;;;;;0.00;0.00;;;7.30;99.70;;;;;;5059653;28;20177;-68
2023/03/15 08:08:41;;;;;;;0.00;0.00;;;7.40;99.90;;;;;;5072650;28;20628;-69
2023/03/15 08:11:07;;;;;;;0.00;0.00;;;7.80;99.90;;;;;;5073044;28;20177;-69
2023/03/15 08:13:33;;;;;;;0.00;0.00;;;8.10;99.50;;;;;;5072746;28;20259;-69
2023/03/15 08:15:59;;;;;;;0.00;0.00;;;8.50;98.70;;;;;;5071956;28;20193;-68
2023/03/15 08:18:24;;;;;;;0.00;0.00;;;8.40;98.60;;;;;;5072072;28;20204;-68
2023/03/15 08:20:50;;;;;;;0.00;0.00;;;8.70;98.80;;;;;;5071942;28;20553;-68
2023/03/15 08:23:16;;;;;;;0.00;0.00;;;8.90;97.80;;;;;;5072061;28;20529;-68
2023/03/15 08:25:43;;;;;;;0.00;0.00;;;8.60;97.30;;;;;;5071830;28;20255;-68
2023/03/15 08:28:09;;;;;;;0.00;0.00;;;8.40;97.30;;;;;;5072102;28;20576;-69
2023/03/15 08:30:34;;;;;;;0.00;0.00;;;8.60;98.60;;;;;;5071780;28;20172;-68
2023/03/15 08:33:00;;;;;;;0.00;0.00;;;9.10;98.70;;;;;;5071744;28;20694;-69
2023/03/15 08:35:26;;;;;;;0.00;0.00;;;9.20;97.50;;;;;;5071771;28;20733;-68
2023/03/15 08:37:52;;;;;;;0.00;0.00;;;9.20;96.70;;;;;;5071745;28;20184;-69
2023/03/15 08:40:25;;;;;;;0.00;0.00;;;8.90;95.70;;;;;;5071757;28;20592;-68
2023/03/15 08:42:55;;;;;;;0.00;0.00;;;8.30;96.00;;;;;;5071839;28;20169;-69
2023/03/15 08:45:25;;;;;;;0.00;0.00;;;7.80;96.50;;;;;;5071536;28;20662;-68
2023/03/15 08:47:57;;;;;;;0.00;0.00;;;7.40;96.90;;;;;;5071910;28;20180;-69
2023/03/15 08:50:24;;;;;;;0.00;0.00;;;7.20;96.90;;;;;;5071599;28;20581;-68
2023/03/15 08:52:50;;;;;;;0.00;0.00;;;7.10;97.10;;;;;;5071936;28;20192;-68
2023/03/15 08:55:16;;;;;;;0.00;0.00;;;6.90;97.50;;;;;;5071861;28;20176;-68
2023/03/15 08:57:42;;;;;;;0.00;0.00;;;6.60;96.40;;;;;;5071521;28;20183;-68
2023/03/15 09:00:08;;;;;;;0.00;0.00;;;6.60;97.40;;;;;;5071734;28;20212;-68
2023/03/15 09:02:35;;;;;;;0.00;0.00;;;6.90;97.90;;;;;;5071602;28;20169;-68
2023/03/15 09:05:01;;;;;;;0.00;0.00;;;7.40;97.80;;;;;;5071735;28;20189;-68
2023/03/15 09:07:27;;;;;;;0.00;0.00;;;7.90;96.90;;;;;;5053584;28;20188;-68
2023/03/15 09:09:53;;;;;;;0.00;0.00;;;8.30;96.60;;;;;;5050655;28;20533;-68
2023/03/15 09:12:20;;;;;;;0.00;0.00;;;8.20;93.60;;;;;;5051430;28;20185;-68
2023/03/15 09:14:45;;;;;;;0.00;0.00;;;8.30;94.70;;;;;;5050325;28;20180;-69
2023/03/15 09:17:11;;;;;;;0.00;0.00;;;8.10;93.70;;;;;;5051344;28;20225;-67
2023/03/15 09:19:37;;;;;;;0.00;0.00;;;7.90;94.10;;;;;;5051327;28;20563;-67
2023/03/15 09:22:03;;;;;;;0.00;0.00;;;7.60;94.60;;;;;;5051310;28;20180;-67
2023/03/15 09:24:28;;;;;;;0.00;0.00;;;7.50;94.90;;;;;;5051284;28;20181;-66
2023/03/15 09:26:54;;;;;;;0.00;0.00;;;7.30;94.40;;;;;;5051329;28;20204;-67
2023/03/15 09:29:20;;;;;;;0.00;0.00;;;7.10;94.20;;;;;;5051154;28;20625;-67
2023/03/15 09:31:45;;;;;;;0.00;0.00;;;7.00;95.40;;;;;;5051299;28;20178;-68
2023/03/15 09:34:11;;;;;;;0.00;0.00;;;6.80;95.20;;;;;;5050025;28;20189;-67
2023/03/15 09:36:37;;;;;;;0.00;0.00;;;6.80;95.40;;;;;;5051158;28;20184;-67
2023/03/15 09:39:03;;;;;;;0.00;0.00;;;6.90;95.50;;;;;;5051021;28;20201;-67
2023/03/15 09:41:35;;;;;;;0.00;0.00;;;7.00;95.90;;;;;;5051091;28;20216;-68
2023/03/15 09:44:22;;;;;;;0.00;0.00;;;7.20;95.80;;;;;;5051052;28;20256;-67
2023/03/15 09:47:11;;;;;;;0.00;0.00;;;7.50;96.20;;;;;;5051362;28;20177;-67
2023/03/15 09:50:00;;;;;;;0.00;0.00;;;7.70;96.30;;;;;;5051097;28;20200;-68
2023/03/15 09:52:36;;;;;;;0.00;0.00;;;7.80;96.00;;;;;;5033281;28;20181;-67
2023/03/15 09:55:11;;;;;;;0.00;0.00;;;8.00;94.90;;;;;;5049805;28;20188;-67
2023/03/15 09:57:44;;;;;;;0.20;0.20;;;7.90;95.00;;;;;;5051014;28;20644;-68
2023/03/15 10:00:17;;;;;;;0.00;0.00;;;7.70;93.60;;;;;;5050921;28;20213;-67
2023/03/15 10:02:59;;;;;;;0.00;0.00;;;7.50;94.10;;;;;;5054323;28;20529;-67
2023/03/15 10:05:40;;;;;;;0.00;0.00;;;7.60;94.90;;;;;;5053410;28;20209;-68
2023/03/15 10:08:17;;;;;;;0.00;0.00;;;7.50;94.60;;;;;;5054847;28;20182;-68
2023/03/15 10:11:09;;;;;;;0.00;0.00;;;7.40;94.10;;;;;;5054587;28;20215;-67
2023/03/15 10:13:59;;;;;;;0.00;0.00;;;7.30;93.90;;;;;;5051283;28;20189;-67
2023/03/15 10:16:41;;;;;;;0.00;0.00;;;7.10;94.30;;;;;;5052956;28;20221;-67
2023/03/15 10:19:35;;;;;;;0.00;0.00;;;7.10;94.60;;;;;;5054471;28;20307;-67
2023/03/15 10:22:08;;;;;;;0.00;0.00;;;7.10;94.40;;;;;;5054255;28;20166;-67
2023/03/15 10:24:45;;;;;;;0.00;0.00;;;6.80;94.00;;;;;;5054277;28;20267;-67
2023/03/15 10:27:23;;;;;;;0.00;0.00;;;6.70;93.80;;;;;;5054319;28;20183;-67
2023/03/15 10:29:50;;;;;;;0.00;0.00;;;6.70;95.00;;;;;;5054062;28;20176;-67
2023/03/15 10:32:19;;;;;;;0.00;0.00;;;6.70;95.50;;;;;;5054122;28;20177;-68
2023/03/15 10:34:50;;;;;;;0.00;0.00;;;6.70;96.00;;;;;;5052770;28;20181;-67
2023/03/15 10:37:15;;;;;;;0.00;0.00;;;6.60;96.00;;;;;;5054003;28;20180;-67
2023/03/15 10:39:45;;;;;;;0.00;0.00;;;6.50;96.00;;;;;;5053579;28;20217;-67
2023/03/15 10:42:23;;;;;;;0.05;0.05;;;6.40;96.50;;;;;;5053965;28;20180;-67
2023/03/15 10:44:49;;;;;;;0.00;0.00;;;6.20;96.30;;;;;;5054014;28;20177;-67
2023/03/15 10:47:19;;;;;;;0.00;0.00;;;6.00;96.80;;;;;;5053939;28;20223;-66
2023/03/15 10:49:45;;;;;;;0.00;0.00;;;5.80;98.00;;;;;;5053975;28;20178;-67
2023/03/15 10:52:34;;;;;;;0.00;0.00;;;5.50;99.40;;;;;;5053907;28;20169;-66
2023/03/15 10:55:03;;;;;;;0.00;0.00;;;5.30;99.90;;;;;;5053613;28;20173;-66
2023/03/15 10:57:33;;;;;;;0.00;0.00;;;5.00;99.90;;;;;;5053647;28;20182;-66
2023/03/15 11:00:16;;;;;;;0.00;0.00;;;4.60;99.90;;;;;;5053593;28;20205;-66
2023/03/15 11:02:48;;;;;;;0.00;0.00;;;4.40;99.90;;;;;;5053474;28;20201;-66
2023/03/15 11:05:16;;;;;;;0.00;0.00;;;4.40;99.90;;;;;;5053571;28;20234;-65
2023/03/15 11:07:54;;;;;;;0.00;0.00;;;4.40;99.90;;;;;;5053342;28;20199;-66
2023/03/15 11:10:25;;;;;;;0.10;0.10;;;4.40;99.90;;;;;;5053239;28;20185;-66
2023/03/15 11:13:21;;;;;;;0.00;0.00;;;4.50;99.90;;;;;;5053264;28;20186;-66
2023/03/15 11:16:02;;;;;;;0.00;0.00;;;4.60;99.90;;;;;;5053408;28;20174;-67
2023/03/15 11:18:41;;;;;;;0.00;0.00;;;4.60;99.90;;;;;;5053247;28;20200;-66
2023/03/15 11:21:10;;;;;;;0.00;0.00;;;4.50;99.90;;;;;;5053330;28;20177;-66
2023/03/15 11:23:39;;;;;;;0.00;0.00;;;4.30;99.90;;;;;;5053158;28;20599;-67
2023/03/15 11:26:05;;;;;;;0.00;0.00;;;4.20;99.90;;;;;;5053220;28;20204;-66
2023/03/15 11:28:34;;;;;;;0.00;0.00;;;4.20;99.90;;;;;;5053109;28;20177;-66
2023/03/15 11:31:00;;;;;;;0.00;0.00;;;4.10;99.90;;;;;;5051671;28;20212;-66
2023/03/15 11:33:40;;;;;;;0.00;0.00;;;4.00;99.90;;;;;;5052980;28;20173;-66
2023/03/15 11:36:11;;;;;;;0.00;0.00;;;3.90;99.90;;;;;;5052946;28;20189;-66
2023/03/15 11:38:43;;;;;;;0.00;0.00;;;3.80;99.90;;;;;;5052699;28;20176;-66
2023/03/15 11:41:17;;;;;;;0.00;0.00;;;3.70;99.90;;;;;;5052871;28;20177;-66
2023/03/15 11:43:55;;;;;;;0.00;0.00;;;3.60;99.90;;;;;;5052781;28;20173;-66
2023/03/15 11:46:30;;;;;;;0.00;0.00;;;3.50;99.90;;;;;;5052696;28;20570;-66
2023/03/15 11:49:11;;;;;;;0.00;0.00;;;3.40;99.90;;;;;;5052873;28;20264;-66
2023/03/15 11:51:37;;;;;;;0.00;0.00;;;3.40;99.90;;;;;;5052652;28;20173;-66
2023/03/15 11:54:16;;;;;;;0.00;0.00;;;3.40;99.90;;;;;;5052470;28;20227;-66
2023/03/15 11:56:44;;;;;;;0.00;0.00;;;3.50;99.90;;;;;;5052715;28;20247;-69
2023/03/15 11:59:14;;;;;;;0.10;0.10;;;3.60;99.90;;;;;;5052592;28;20198;-70
2023/03/15 12:01:50;;;;;;;0.00;0.00;;;3.60;99.90;;;;;;5052394;28;20253;-67
2023/03/15 12:04:25;;;;;;;0.40;0.40;;;3.70;99.90;;;;;;5052474;28;20165;-68
2023/03/15 12:06:55;;;;;;;0.00;0.00;;;3.80;99.90;;;;;;5065203;28;20583;-67
2023/03/15 12:09:36;;;;;;;0.00;0.00;;;3.90;99.90;;;;;;5072372;28;20188;-68
2023/03/15 12:12:05;;;;;;;0.03;0.03;;;4.00;99.90;;;;;;5070874;28;20181;-68
2023/03/15 12:14:35;;;;;;;0.00;0.00;;;4.10;99.90;;;;;;5072129;28;20276;-67
2023/03/15 12:17:23;;;;;;;0.00;0.00;;;4.30;99.90;;;;;;5072081;28;20236;-67
2023/03/15 12:20:17;;;;;;;0.00;0.00;;;4.30;99.90;;;;;;5070921;28;20212;-67
2023/03/15 12:22:51;;;;;;;0.30;0.30;;;4.40;99.90;;;;;;5072044;28;20260;-67
2023/03/15 12:25:34;;;;;;;0.10;0.10;;;4.70;99.90;;;;;;5071666;28;20258;-67
2023/03/15 12:28:06;;;;;;;0.00;0.00;;;4.90;99.90;;;;;;5071976;28;20337;-67
2023/03/15 12:30:37;;;;;;;0.08;0.08;;;5.00;99.90;;;;;;5072086;28;20217;-68
2023/03/15 12:33:10;;;;;;;0.00;0.00;;;5.20;99.90;;;;;;5072003;28;20596;-67
2023/03/15 12:35:39;;;;;;;0.00;0.00;;;5.20;99.90;;;;;;5071839;28;20389;-67
2023/03/15 12:38:16;;;;;;;0.00;0.00;;;5.40;99.90;;;;;;5071828;28;20173;-67
2023/03/15 12:40:56;;;;;;;0.00;0.00;;;5.50;99.90;;;;;;5071757;28;20216;-67
2023/03/15 12:43:36;;;;;;;0.00;0.00;;;5.70;99.90;;;;;;5071734;28;20738;-67
2023/03/15 12:46:01;;;;;;;0.00;0.00;;;5.90;99.90;;;;;;5071670;28;20204;-68
2023/03/15 12:48:28;;;;;;;0.00;0.00;;;5.90;99.90;;;;;;5071641;28;20636;-68
2023/03/15 12:50:59;;;;;;;0.00;0.00;;;6.10;99.90;;;;;;5071663;28;20196;-68
2023/03/15 12:53:28;;;;;;;0.00;0.00;;;6.10;99.90;;;;;;5071543;28;20193;-67
2023/03/15 12:55:55;;;;;;;0.00;0.00;;;6.20;99.90;;;;;;5071615;28;20172;-68
2023/03/15 12:58:28;;;;;;;0.00;0.00;;;6.30;99.90;;;;;;5071306;28;20703;-67
2023/03/15 13:00:54;;;;;;;0.00;0.00;;;6.10;99.90;;;;;;5071543;28;20215;-68
2023/03/15 13:03:24;;;;;;;0.00;0.00;;;6.00;99.90;;;;;;5071319;28;20180;-68
2023/03/15 13:06:31;;;;;;;0.00;0.00;;;5.90;99.90;;;;;;5066838;28;20253;-68